createdAt,value
2022-11-16T00:00:22.082Z,8.98
2022-11-16T00:03:23.999Z,8.93
2022-11-16T00:06:26.618Z,9.20
2022-11-16T00:09:29.146Z,8.13
2022-11-16T00:12:31.560Z,7.70
2022-11-16T00:15:35.094Z,8.18
2022-11-16T00:18:37.092Z,9.15
2022-11-16T00:21:39.242Z,10.07
2022-11-16T00:24:41.247Z,8.93
2022-11-16T00:27:43.514Z,8.40
2022-11-16T00:30:46.890Z,8.55
2022-11-16T00:33:49.868Z,8.88
2022-11-16T00:36:52.215Z,8.45
2022-11-16T00:39:54.115Z,8.32
2022-11-16T00:42:56.137Z,9.30
2022-11-16T00:45:59.464Z,8.82
2022-11-16T00:49:01.733Z,8.02
2022-11-16T00:52:03.859Z,7.88
2022-11-16T00:55:07.211Z,8.30
2022-11-16T00:58:09.141Z,9.07
2022-11-16T01:01:12.738Z,8.70
2022-11-16T01:04:14.713Z,9.15
2022-11-16T01:07:16.778Z,9.30
2022-11-16T01:10:21.685Z,9.35
2022-11-16T01:13:23.607Z,8.45
2022-11-16T01:16:27.006Z,9.02
2022-11-16T01:19:29.446Z,9.40
2022-11-16T01:22:32.019Z,8.50
2022-11-16T01:25:34.012Z,9.30
2022-11-16T01:28:36.366Z,9.15
2022-11-16T01:31:39.987Z,9.23
2022-11-16T01:34:41.995Z,8.77
2022-11-16T01:37:44.235Z,8.93
2022-11-16T01:40:46.352Z,9.10
2022-11-16T01:43:55.315Z,8.45
2022-11-16T01:46:58.740Z,8.93
2022-11-16T01:50:07.419Z,8.90
2022-11-16T01:53:11.395Z,8.32
2022-11-16T01:56:13.506Z,10.60
2022-11-16T01:59:16.738Z,9.18
2022-11-16T02:02:20.158Z,9.63
2022-11-16T02:05:30.845Z,11.77
2022-11-16T02:08:44.823Z,9.23
2022-11-16T02:12:02.773Z,8.77
2022-11-16T02:15:14.169Z,8.52
2022-11-16T02:18:30.000Z,8.93
2022-11-16T02:21:37.499Z,8.82
2022-11-16T02:24:47.281Z,9.35
2022-11-16T02:28:13.201Z,9.13
2022-11-16T02:31:20.963Z,8.82
2022-11-16T02:34:24.698Z,9.40
2022-11-16T02:37:31.475Z,14.48
2022-11-16T02:40:39.340Z,8.07
2022-11-16T02:43:44.878Z,7.40
2022-11-16T02:46:54.263Z,7.95
2022-11-16T02:50:01.777Z,9.02
2022-11-16T02:53:03.962Z,7.63
2022-11-16T02:56:06.381Z,8.45
2022-11-16T02:59:12.141Z,7.53
2022-11-16T03:02:25.043Z,8.38
2022-11-16T03:05:32.341Z,7.68
2022-11-16T03:08:37.920Z,7.68
2022-11-16T03:11:44.935Z,7.70
2022-11-16T03:14:52.238Z,7.85
2022-11-16T03:17:57.396Z,21.23
2022-11-16T03:21:06.577Z,8.25
2022-11-16T03:24:08.824Z,7.85
2022-11-16T03:27:21.599Z,11.23
2022-11-16T03:30:26.166Z,8.30
2022-11-16T03:33:32.838Z,7.68
2022-11-16T03:36:39.514Z,7.75
2022-11-16T03:39:42.754Z,7.90
2022-11-16T03:42:46.073Z,7.22
2022-11-16T03:45:48.511Z,7.75
2022-11-16T03:48:57.151Z,7.82
2022-11-16T03:51:59.103Z,7.38
2022-11-16T03:55:01.027Z,8.13
2022-11-16T03:58:02.886Z,7.50
2022-11-16T04:01:05.077Z,7.50
2022-11-16T04:04:08.452Z,8.15
2022-11-16T04:07:10.512Z,8.10
2022-11-16T04:10:12.994Z,7.35
2022-11-16T04:13:16.547Z,7.88
2022-11-16T04:16:18.738Z,7.90
2022-11-16T04:19:22.153Z,7.50
2022-11-16T04:22:28.608Z,7.85
2022-11-16T04:25:34.171Z,7.65
2022-11-16T04:28:37.072Z,7.00
2022-11-16T04:31:39.668Z,9.27
2022-11-16T04:34:42.902Z,8.02
2022-11-16T04:37:44.796Z,7.85
2022-11-16T04:40:46.752Z,8.15
2022-11-16T04:43:48.627Z,8.32
2022-11-16T04:46:50.553Z,7.75
2022-11-16T04:49:53.810Z,7.60
2022-11-16T04:52:55.696Z,7.90
2022-11-16T04:56:00.663Z,7.82
2022-11-16T04:59:03.010Z,10.00
2022-11-16T05:02:05.058Z,7.88
2022-11-16T05:05:09.304Z,8.15
2022-11-16T05:08:11.188Z,8.65
2022-11-16T05:11:13.067Z,8.52
2022-11-16T05:14:15.002Z,9.07
2022-11-16T05:17:18.023Z,9.90
2022-11-16T05:20:21.523Z,8.02
2022-11-16T05:23:23.452Z,8.27
2022-11-16T05:26:25.459Z,8.82
2022-11-16T05:29:27.493Z,9.48
2022-11-16T05:32:29.485Z,9.82
2022-11-16T05:35:32.829Z,8.90
2022-11-16T05:38:34.900Z,8.90
2022-11-16T05:41:36.989Z,8.75
2022-11-16T05:44:39.171Z,8.88
2022-11-16T05:47:41.060Z,9.10
2022-11-16T05:50:44.325Z,10.10
2022-11-16T05:53:47.313Z,9.65
2022-11-16T05:56:49.554Z,8.45
2022-11-16T05:59:51.450Z,11.70
2022-11-16T06:02:53.373Z,8.95
2022-11-16T06:05:57.319Z,9.82
2022-11-16T06:08:59.348Z,9.38
2022-11-16T06:12:01.246Z,9.38
2022-11-16T06:15:03.474Z,9.50
2022-11-16T06:18:06.517Z,10.05
2022-11-16T06:21:10.368Z,9.70
2022-11-16T06:24:12.279Z,9.40
2022-11-16T06:27:14.154Z,10.20
2022-11-16T06:30:16.421Z,12.25
2022-11-16T06:33:18.727Z,12.32
2022-11-16T06:36:22.030Z,11.48
2022-11-16T06:39:23.853Z,11.07
2022-11-16T06:42:25.802Z,11.77
2022-11-16T06:45:27.879Z,11.25
2022-11-16T06:48:30.769Z,10.23
2022-11-16T06:51:34.175Z,10.27
2022-11-16T06:54:36.072Z,11.60
2022-11-16T06:57:37.974Z,10.80
2022-11-16T07:00:40.012Z,10.15
2022-11-16T07:03:41.959Z,10.70
2022-11-16T07:06:45.224Z,10.00
2022-11-16T07:09:47.141Z,10.23
2022-11-16T07:12:49.021Z,8.82
2022-11-16T07:15:50.948Z,9.80
2022-11-16T07:18:53.000Z,10.25
2022-11-16T07:21:56.254Z,9.20
2022-11-16T07:24:58.153Z,10.57
2022-11-16T07:28:00.076Z,10.38
2022-11-16T07:31:02.661Z,10.98
2022-11-16T07:34:04.719Z,10.73
2022-11-16T07:37:08.055Z,10.20
2022-11-16T07:40:10.630Z,9.80
2022-11-16T07:43:12.654Z,10.35
2022-11-16T07:49:38.804Z,10.88
2022-11-16T07:52:42.082Z,11.10
2022-11-16T07:55:43.946Z,10.52
2022-11-16T07:58:45.860Z,11.23
2022-11-16T08:01:48.279Z,10.48
2022-11-16T08:04:50.767Z,10.82
2022-11-16T08:07:53.999Z,9.75
2022-11-16T08:10:59.683Z,11.02
2022-11-16T08:14:01.665Z,11.15
2022-11-16T08:17:03.615Z,10.32
2022-11-16T08:20:06.619Z,12.32
2022-11-16T08:23:09.880Z,10.85
2022-11-16T08:26:13.737Z,10.85
2022-11-16T08:29:15.964Z,11.05
2022-11-16T08:32:17.829Z,10.95
2022-11-16T08:35:19.734Z,10.93
2022-11-16T08:38:22.968Z,11.82
2022-11-16T08:41:24.910Z,10.65
2022-11-16T08:44:27.005Z,11.80
2022-11-16T08:47:29.005Z,10.80
2022-11-16T08:50:33.455Z,11.07
2022-11-16T08:53:43.075Z,10.35
2022-11-16T08:56:45.097Z,10.93
2022-11-16T08:59:46.988Z,12.02
2022-11-16T09:02:48.912Z,10.73
2022-11-16T09:05:50.799Z,11.25
2022-11-16T09:08:54.539Z,10.95
2022-11-16T09:11:56.402Z,11.27
2022-11-16T09:14:58.315Z,10.60
2022-11-16T09:18:00.267Z,11.05
2022-11-16T09:21:02.308Z,11.10
2022-11-16T09:24:06.074Z,10.05
2022-11-16T09:27:08.015Z,10.70
2022-11-16T09:30:11.053Z,11.10
2022-11-16T09:33:12.989Z,11.13
2022-11-16T09:36:14.883Z,10.88
2022-11-16T09:39:33.512Z,11.07
2022-11-16T09:42:50.939Z,11.15
2022-11-16T09:46:00.895Z,10.95
2022-11-16T09:49:17.273Z,11.93
2022-11-16T09:52:29.534Z,10.80
2022-11-16T09:55:37.991Z,11.10
2022-11-16T09:58:46.179Z,11.17
2022-11-16T10:01:52.710Z,11.07
2022-11-16T10:05:00.073Z,11.35
2022-11-16T10:08:10.517Z,12.60
2022-11-16T10:11:31.727Z,11.02
2022-11-16T10:14:50.707Z,10.65
2022-11-16T10:18:04.515Z,7.10
2022-11-16T10:21:35.577Z,10.15
2022-11-16T10:24:56.350Z,10.20
2022-11-16T10:28:31.299Z,10.55
2022-11-16T10:31:54.145Z,10.93
2022-11-16T10:35:03.676Z,9.55
2022-11-16T10:38:12.973Z,9.63
2022-11-16T10:44:32.716Z,10.05
2022-11-16T10:47:39.291Z,10.25
2022-11-16T10:50:44.102Z,10.60
2022-11-16T10:53:46.375Z,10.23
2022-11-16T10:56:51.972Z,10.07
2022-11-16T10:59:56.508Z,11.52
2022-11-16T11:02:58.386Z,11.80
2022-11-16T11:06:00.452Z,10.98
2022-11-16T11:09:14.964Z,11.27
2022-11-16T11:12:18.328Z,10.80
2022-11-16T11:15:26.130Z,11.95
2022-11-16T11:18:28.737Z,11.07
2022-11-16T11:21:30.918Z,10.77
2022-11-16T11:24:48.262Z,11.93
2022-11-16T11:27:52.089Z,12.20
2022-11-16T11:31:00.300Z,11.45
2022-11-16T11:34:14.329Z,12.07
2022-11-16T11:37:18.625Z,11.70
2022-11-16T11:40:23.468Z,11.00
2022-11-16T11:43:26.878Z,10.40
2022-11-16T11:47:11.044Z,10.50
2022-11-16T11:50:05.804Z,10.32
2022-11-16T11:53:20.879Z,10.30
2022-11-16T11:56:23.798Z,9.93
2022-11-16T11:59:27.203Z,9.30
2022-11-16T12:02:43.162Z,8.73
2022-11-16T12:06:02.278Z,8.20
2022-11-16T12:09:23.831Z,8.27
2022-11-16T12:12:45.389Z,8.35
2022-11-16T12:16:02.782Z,8.32
2022-11-16T12:19:36.032Z,7.97
2022-11-16T12:23:02.686Z,8.10
2022-11-16T12:26:14.626Z,7.70
2022-11-16T12:29:25.133Z,7.38
2022-11-16T12:32:45.546Z,7.25
2022-11-16T12:36:01.160Z,7.38
2022-11-16T12:39:15.831Z,6.72
2022-11-16T12:42:29.776Z,6.97
2022-11-16T12:45:44.915Z,7.30
2022-11-16T12:49:13.082Z,7.57
2022-11-16T12:52:35.026Z,8.68
2022-11-16T12:55:45.850Z,7.18
2022-11-16T12:59:14.765Z,6.90
2022-11-16T13:02:29.983Z,6.90
2022-11-16T13:05:44.169Z,5.60
2022-11-16T13:08:52.364Z,4.10
2022-11-16T13:11:57.329Z,4.07
2022-11-16T13:15:02.155Z,4.72
2022-11-16T13:18:07.465Z,4.88
2022-11-16T13:21:20.683Z,5.95
2022-11-16T13:24:46.526Z,7.97
2022-11-16T13:27:53.242Z,8.07
2022-11-16T13:31:02.832Z,7.72
2022-11-16T13:34:07.614Z,8.95
2022-11-16T13:37:46.251Z,7.57
2022-11-16T13:40:49.823Z,7.57
2022-11-16T13:43:51.849Z,7.57
2022-11-16T13:46:57.652Z,7.90
2022-11-16T13:50:01.504Z,7.28
2022-11-16T13:53:57.582Z,7.28
2022-11-16T13:56:48.000Z,6.78
2022-11-16T13:59:56.562Z,6.55
2022-11-16T14:03:26.309Z,6.23
2022-11-16T14:06:57.608Z,7.57
2022-11-16T14:10:00.341Z,7.53
2022-11-16T14:13:04.524Z,9.07
2022-11-16T14:16:40.001Z,10.10
2022-11-16T14:19:53.634Z,8.50
2022-11-16T14:23:09.850Z,8.50
2022-11-16T14:26:21.857Z,8.65
2022-11-16T14:29:52.936Z,9.43
2022-11-16T14:32:56.741Z,10.73
2022-11-16T14:36:00.273Z,9.85
2022-11-16T14:39:23.472Z,10.43
2022-11-16T14:42:27.818Z,10.60
2022-11-16T14:45:33.731Z,9.77
2022-11-16T14:48:43.548Z,13.18
2022-11-16T14:51:49.061Z,10.57
2022-11-16T14:54:54.849Z,10.52
2022-11-16T14:58:16.548Z,11.00
2022-11-16T15:01:24.020Z,11.18
2022-11-16T15:04:26.806Z,11.15
2022-11-16T15:07:30.017Z,9.38
2022-11-16T15:10:32.237Z,10.48
2022-11-16T15:13:35.897Z,11.32
2022-11-16T15:16:49.160Z,14.50
2022-11-16T15:19:55.525Z,38.13
2022-11-16T15:22:59.676Z,24.23
2022-11-16T15:26:01.596Z,11.95
2022-11-16T15:29:03.862Z,10.23
2022-11-16T15:32:15.879Z,11.23
2022-11-16T15:35:21.341Z,10.82
2022-11-16T15:38:25.901Z,11.02
2022-11-16T15:41:28.274Z,12.23
2022-11-16T15:44:31.260Z,13.60
2022-11-16T15:47:36.824Z,14.40
2022-11-16T15:50:39.065Z,14.30
2022-11-16T15:53:42.798Z,13.57
2022-11-16T15:56:44.715Z,13.32
2022-11-16T15:59:49.595Z,13.00
2022-11-16T16:02:54.705Z,13.60
2022-11-16T16:05:56.823Z,13.75
2022-11-16T16:09:05.495Z,14.45
2022-11-16T16:12:17.420Z,16.75
2022-11-16T16:15:24.876Z,15.52
2022-11-16T16:18:28.367Z,15.65
2022-11-16T16:21:42.530Z,14.90
2022-11-16T16:24:46.395Z,14.50
2022-11-16T16:27:48.237Z,13.95
2022-11-16T16:30:51.336Z,14.55
2022-11-16T16:33:54.957Z,13.85
2022-11-16T16:36:57.402Z,13.52
2022-11-16T16:40:00.270Z,14.18
2022-11-16T16:43:02.378Z,14.27
2022-11-16T16:46:05.179Z,14.75
2022-11-16T16:49:09.193Z,13.63
2022-11-16T16:52:12.713Z,14.35
2022-11-16T16:55:14.863Z,14.43
2022-11-16T16:58:17.126Z,14.57
2022-11-16T17:01:19.826Z,13.90
2022-11-16T17:04:23.698Z,12.93
2022-11-16T17:07:26.386Z,13.13
2022-11-16T17:10:28.461Z,13.60
2022-11-16T17:13:30.968Z,14.13
2022-11-16T17:16:33.979Z,15.10
2022-11-16T17:19:40.267Z,14.52
2022-11-16T17:22:43.882Z,16.40
2022-11-16T17:25:50.806Z,17.77
2022-11-16T17:28:55.583Z,16.20
2022-11-16T17:31:59.516Z,15.95
2022-11-16T17:35:04.159Z,16.88
2022-11-16T17:38:07.229Z,15.60
2022-11-16T17:41:12.890Z,16.25
2022-11-16T17:44:21.242Z,15.73
2022-11-16T17:47:24.310Z,15.38
2022-11-16T17:50:28.308Z,14.32
2022-11-16T17:53:32.942Z,15.35
2022-11-16T17:56:35.986Z,14.82
2022-11-16T17:59:38.773Z,13.15
2022-11-16T18:02:41.812Z,13.35
2022-11-16T18:05:46.105Z,11.88
2022-11-16T18:08:48.726Z,11.80
2022-11-16T18:11:51.539Z,12.80
2022-11-16T18:15:21.224Z,12.07
2022-11-16T18:18:17.148Z,13.80
2022-11-16T18:21:21.875Z,13.30
2022-11-16T18:24:24.707Z,12.50
2022-11-16T18:27:27.641Z,13.45
2022-11-16T18:30:30.040Z,13.48
2022-11-16T18:33:33.406Z,12.82
2022-11-16T18:36:40.277Z,16.25
2022-11-16T18:39:42.888Z,17.55
2022-11-16T18:42:45.769Z,15.30
2022-11-16T18:45:48.530Z,15.68
2022-11-16T18:48:51.885Z,15.15
2022-11-16T18:51:56.288Z,12.68
2022-11-16T18:54:59.644Z,15.30
2022-11-16T18:58:06.478Z,17.52
2022-11-16T19:01:18.434Z,31.25
2022-11-16T19:04:21.984Z,39.75
2022-11-16T19:07:26.644Z,32.20
2022-11-16T19:10:29.287Z,35.30
2022-11-16T19:13:32.699Z,25.02
2022-11-16T19:16:36.215Z,17.75
2022-11-16T19:19:39.447Z,18.45
2022-11-16T19:22:43.914Z,16.75
2022-11-16T19:25:47.608Z,14.35
2022-11-16T19:28:51.141Z,23.65
2022-11-16T19:31:54.078Z,24.42
2022-11-16T19:34:57.226Z,22.15
2022-11-16T19:38:01.288Z,18.52
2022-11-16T19:44:22.733Z,19.50
2022-11-16T19:47:25.498Z,20.67
2022-11-16T19:50:28.596Z,18.05
2022-11-16T19:53:33.003Z,20.92
2022-11-16T19:56:36.828Z,20.42
2022-11-16T19:59:40.417Z,20.10
2022-11-16T20:02:43.494Z,16.85
2022-11-16T20:05:47.213Z,16.52
2022-11-16T20:08:52.474Z,27.73
2022-11-16T20:11:55.782Z,16.70
2022-11-16T20:14:58.302Z,15.80
2022-11-16T20:18:02.566Z,12.98
2022-11-16T20:21:06.798Z,16.63
2022-11-16T20:24:14.190Z,16.77
2022-11-16T20:27:17.400Z,13.32
2022-11-16T20:30:20.552Z,10.95
2022-11-16T20:33:23.094Z,11.20
2022-11-16T20:36:27.027Z,11.48
2022-11-16T20:39:31.324Z,12.80
2022-11-16T20:42:33.904Z,19.45
2022-11-16T20:45:36.534Z,15.00
2022-11-16T20:48:40.312Z,14.05
2022-11-16T20:51:42.596Z,13.00
2022-11-16T20:54:46.664Z,13.68
2022-11-16T20:57:49.119Z,15.63
2022-11-16T21:00:51.563Z,14.93
2022-11-16T21:03:54.030Z,14.30
2022-11-16T21:06:56.607Z,16.48
2022-11-16T21:10:00.262Z,17.20
2022-11-16T21:13:02.849Z,22.98
2022-11-16T21:16:06.957Z,17.83
2022-11-16T21:19:08.968Z,17.40
2022-11-16T21:22:11.038Z,16.73
2022-11-16T21:25:14.345Z,15.20
2022-11-16T21:28:22.713Z,14.82
2022-11-16T21:31:28.568Z,14.25
2022-11-16T21:34:31.379Z,13.82
2022-11-16T21:37:35.490Z,14.15
2022-11-16T21:40:38.868Z,13.65
2022-11-16T21:43:40.855Z,13.27
2022-11-16T21:46:42.802Z,11.00
2022-11-16T21:50:09.820Z,10.60
2022-11-16T21:53:07.762Z,10.68
2022-11-16T21:56:14.905Z,11.73
2022-11-16T21:59:16.763Z,11.35
2022-11-16T22:02:18.730Z,10.57
2022-11-16T22:05:20.768Z,10.20
2022-11-16T22:08:22.764Z,10.82
2022-11-16T22:11:26.145Z,9.80
2022-11-16T22:14:28.042Z,8.80
2022-11-16T22:17:29.923Z,8.75
2022-11-16T22:20:31.842Z,9.25
2022-11-16T22:23:34.928Z,8.18
2022-11-16T22:26:38.573Z,7.90
2022-11-16T22:29:40.650Z,8.10
2022-11-16T22:32:42.621Z,7.75
2022-11-16T22:35:46.998Z,7.00
2022-11-16T22:38:49.016Z,7.50
2022-11-16T22:41:52.373Z,6.38
2022-11-16T22:44:54.322Z,5.82
2022-11-16T22:47:56.203Z,5.28
2022-11-16T22:51:06.222Z,4.63
2022-11-16T22:54:10.463Z,7.00
2022-11-16T22:57:13.736Z,9.15
2022-11-16T23:00:15.980Z,8.75
2022-11-16T23:03:18.047Z,8.38
2022-11-16T23:06:20.340Z,7.60
2022-11-16T23:09:22.313Z,7.20
2022-11-16T23:12:25.672Z,8.85
2022-11-16T23:15:27.604Z,8.93
2022-11-16T23:18:29.494Z,9.05
2022-11-16T23:21:31.388Z,9.23
2022-11-16T23:24:33.230Z,9.32
2022-11-16T23:27:40.816Z,9.05
2022-11-16T23:30:42.863Z,9.18
2022-11-16T23:33:44.849Z,9.63
2022-11-16T23:36:46.738Z,9.13
2022-11-16T23:39:48.781Z,9.25
2022-11-16T23:42:53.365Z,9.40
2022-11-16T23:45:55.298Z,10.73
2022-11-16T23:48:58.118Z,9.50
2022-11-16T23:52:00.075Z,9.82
2022-11-16T23:55:02.049Z,9.68
2022-11-16T23:58:05.800Z,9.82
